createdAt,value
2019-01-05T00:00:34.864Z,15.30
2019-01-05T00:01:40.006Z,16.40
2019-01-05T00:02:56.921Z,16.80
2019-01-05T00:04:14.053Z,15.80
2019-01-05T00:05:27.989Z,16.35
2019-01-05T00:06:49.086Z,15.72
2019-01-05T00:08:10.264Z,16.95
2019-01-05T00:09:31.869Z,17.32
2019-01-05T00:10:51.898Z,16.57
2019-01-05T00:12:02.917Z,15.40
2019-01-05T00:13:13.836Z,17.70
2019-01-05T00:14:21.898Z,16.02
2019-01-05T00:15:33.438Z,16.07
2019-01-05T00:16:54.629Z,15.55
2019-01-05T00:18:16.181Z,16.82
2019-01-05T00:19:21.987Z,17.57
2019-01-05T00:20:43.697Z,17.10
2019-01-05T00:22:05.180Z,16.50
2019-01-05T00:23:19.678Z,17.77
2019-01-05T00:24:27.410Z,18.00
2019-01-05T00:25:35.566Z,17.50
2019-01-05T00:26:59.163Z,16.35
2019-01-05T00:28:06.943Z,17.02
2019-01-05T00:29:21.240Z,16.75
2019-01-05T00:30:41.510Z,17.10
2019-01-05T00:32:37.219Z,17.45
2019-01-05T00:33:54.304Z,16.73
2019-01-05T00:35:09.667Z,17.05
2019-01-05T00:36:15.586Z,16.65
2019-01-05T00:37:21.015Z,16.55
2019-01-05T00:38:42.812Z,17.25
2019-01-05T00:39:50.930Z,18.32
2019-01-05T00:41:06.579Z,17.70
2019-01-05T00:42:27.310Z,17.25
2019-01-05T00:43:44.389Z,17.20
2019-01-05T00:44:52.367Z,17.12
2019-01-05T00:46:16.763Z,16.32
2019-01-05T00:47:22.078Z,18.55
2019-01-05T00:48:31.377Z,17.95
2019-01-05T00:49:50.067Z,18.05
2019-01-05T00:50:56.813Z,18.20
2019-01-05T00:52:19.133Z,17.60
2019-01-05T00:53:33.253Z,17.80
2019-01-05T00:54:39.072Z,18.50
2019-01-05T00:55:47.397Z,18.42
2019-01-05T00:56:53.212Z,17.17
2019-01-05T00:58:17.147Z,17.87
2019-01-05T00:59:23.260Z,18.70
2019-01-05T01:00:44.504Z,17.57
2019-01-05T01:02:04.723Z,18.67
2019-01-05T01:03:09.881Z,17.30
2019-01-05T01:04:20.919Z,18.00
2019-01-05T01:05:41.020Z,18.07
2019-01-05T01:06:54.687Z,18.07
2019-01-05T01:08:17.979Z,18.07
2019-01-05T01:09:32.002Z,18.20
2019-01-05T01:10:54.810Z,19.27
2019-01-05T01:12:08.746Z,18.00
2019-01-05T01:13:22.817Z,17.55
2019-01-05T01:14:36.780Z,18.90
2019-01-05T01:15:57.751Z,19.45
2019-01-05T01:17:08.593Z,18.70
2019-01-05T01:18:29.626Z,20.82
2019-01-05T01:19:46.327Z,19.90
2019-01-05T01:21:04.417Z,18.98
2019-01-05T01:22:25.652Z,20.57
2019-01-05T01:23:39.813Z,22.32
2019-01-05T01:25:01.044Z,22.20
2019-01-05T01:26:23.217Z,21.62
2019-01-05T01:27:37.165Z,21.90
2019-01-05T01:28:42.377Z,21.52
2019-01-05T01:29:53.779Z,23.20
2019-01-05T01:31:01.678Z,22.17
2019-01-05T01:32:06.824Z,22.58
2019-01-05T01:33:12.925Z,22.22
2019-01-05T01:34:18.241Z,23.30
2019-01-05T01:35:39.505Z,20.08
2019-01-05T01:36:44.640Z,23.67
2019-01-05T01:38:23.975Z,22.65
2019-01-05T01:39:29.375Z,22.17
2019-01-05T01:40:43.365Z,22.25
2019-01-05T01:41:57.481Z,23.45
2019-01-05T01:43:08.909Z,21.15
2019-01-05T01:44:30.318Z,21.97
2019-01-05T01:45:47.609Z,22.37
2019-01-05T01:46:56.735Z,23.67
2019-01-05T01:48:05.969Z,23.35
2019-01-05T01:49:11.039Z,23.18
2019-01-05T01:50:33.382Z,23.38
2019-01-05T01:51:41.411Z,21.55
2019-01-05T01:52:55.429Z,23.22
2019-01-05T01:54:09.700Z,22.52
2019-01-05T01:55:30.730Z,22.35
2019-01-05T01:56:41.593Z,19.98
2019-01-05T01:57:53.712Z,21.25
2019-01-05T01:59:03.779Z,20.12
2019-01-05T02:00:20.155Z,21.95
2019-01-05T02:01:27.941Z,22.48
2019-01-05T02:02:38.950Z,20.68
2019-01-05T02:03:46.928Z,19.98
2019-01-05T02:05:04.711Z,21.20
2019-01-05T02:06:14.537Z,19.98
2019-01-05T02:07:22.538Z,20.45
2019-01-05T02:08:36.403Z,20.92
2019-01-05T02:09:55.131Z,21.35
2019-01-05T02:11:18.636Z,20.20
2019-01-05T02:12:29.395Z,20.40
2019-01-05T02:13:36.328Z,20.52
2019-01-05T02:14:50.283Z,21.50
2019-01-05T02:15:58.403Z,21.33
2019-01-05T02:17:18.237Z,20.20
2019-01-05T02:18:41.022Z,21.42
2019-01-05T02:20:05.136Z,20.68
2019-01-05T02:21:24.724Z,22.40
2019-01-05T02:23:05.466Z,21.05
2019-01-05T02:24:43.960Z,22.10
2019-01-05T02:25:57.587Z,21.25
2019-01-05T02:27:11.304Z,19.82
2019-01-05T02:28:39.651Z,22.17
2019-01-05T02:30:05.084Z,21.10
2019-01-05T02:31:33.680Z,20.50
2019-01-05T02:33:06.547Z,19.92
2019-01-05T02:34:33.522Z,20.52
2019-01-05T02:36:20.033Z,21.50
2019-01-05T02:37:57.789Z,21.15
2019-01-05T02:39:23.273Z,19.57
2019-01-05T02:40:58.442Z,20.40
2019-01-05T02:42:25.812Z,20.15
2019-01-05T02:43:45.581Z,19.77
2019-01-05T02:45:02.376Z,19.75
2019-01-05T02:46:19.249Z,20.05
2019-01-05T02:47:51.273Z,20.72
2019-01-05T02:49:19.636Z,19.57
2019-01-05T02:51:00.350Z,20.20
2019-01-05T02:52:28.976Z,19.62
2019-01-05T02:53:52.131Z,21.30
2019-01-05T02:55:32.740Z,19.57
2019-01-05T02:56:49.482Z,20.72
2019-01-05T02:58:28.466Z,21.57
2019-01-05T02:59:54.147Z,20.60
2019-01-05T03:01:22.316Z,21.27
2019-01-05T03:02:54.261Z,19.50
2019-01-05T03:04:32.074Z,21.27
2019-01-05T03:06:15.980Z,21.60
2019-01-05T03:08:04.014Z,21.45
2019-01-05T03:09:40.032Z,22.37
2019-01-05T03:11:11.717Z,18.98
2019-01-05T03:12:34.503Z,19.25
2019-01-05T03:14:04.662Z,19.90
2019-01-05T03:15:30.443Z,20.65
2019-01-05T03:17:00.561Z,21.35
2019-01-05T03:18:32.482Z,19.98
2019-01-05T03:20:02.427Z,19.80
2019-01-05T03:21:19.040Z,21.10
2019-01-05T03:22:38.405Z,21.25
2019-01-05T03:24:00.848Z,21.85
2019-01-05T03:25:47.637Z,19.73
2019-01-05T03:27:29.967Z,20.32
2019-01-05T03:28:55.497Z,19.10
2019-01-05T03:30:12.101Z,19.23
2019-01-05T03:31:48.168Z,17.65
2019-01-05T03:33:27.593Z,18.77
2019-01-05T03:35:05.634Z,17.80
2019-01-05T03:36:31.526Z,18.77
2019-01-05T03:38:06.245Z,18.02
2019-01-05T03:39:57.400Z,18.80
2019-01-05T03:41:23.031Z,17.90
2019-01-05T03:43:03.478Z,18.82
2019-01-05T03:44:40.395Z,17.10
2019-01-05T03:45:56.292Z,20.45
2019-01-05T03:47:20.204Z,18.77
2019-01-05T03:48:54.971Z,18.85
2019-01-05T03:50:20.572Z,18.05
2019-01-05T03:51:45.970Z,18.00
2019-01-05T03:53:41.634Z,19.57
2019-01-05T03:54:52.566Z,18.55
2019-01-05T03:56:22.973Z,18.67
2019-01-05T03:57:49.046Z,19.42
2019-01-05T03:59:32.837Z,17.07
2019-01-05T04:00:59.650Z,17.67
2019-01-05T04:02:25.531Z,16.93
2019-01-05T04:03:55.572Z,16.27
2019-01-05T04:05:28.849Z,17.57
2019-01-05T04:06:57.605Z,17.98
2019-01-05T04:08:53.442Z,20.20
2019-01-05T04:10:26.299Z,19.32
2019-01-05T04:12:06.978Z,17.92
2019-01-05T04:13:15.126Z,18.62
2019-01-05T04:14:31.559Z,21.70
2019-01-05T04:16:09.528Z,18.75
2019-01-05T04:17:50.267Z,20.45
2019-01-05T04:19:14.115Z,21.00
2019-01-05T04:20:25.229Z,19.48
2019-01-05T04:22:13.302Z,20.85
2019-01-05T04:24:00.016Z,19.90
2019-01-05T04:25:59.904Z,19.37
2019-01-05T04:27:31.734Z,20.52
2019-01-05T04:29:12.416Z,19.70
2019-01-05T04:30:53.022Z,21.77
2019-01-05T04:32:18.955Z,22.20
2019-01-05T04:33:59.484Z,20.55
2019-01-05T04:35:39.570Z,21.45
2019-01-05T04:37:06.599Z,23.50
2019-01-05T04:38:47.223Z,20.95
2019-01-05T04:40:29.385Z,21.30
2019-01-05T04:42:11.591Z,22.70
2019-01-05T04:43:59.994Z,20.62
2019-01-05T04:45:52.415Z,20.80
2019-01-05T04:47:28.657Z,19.85
2019-01-05T04:48:48.168Z,20.65
2019-01-05T04:50:14.062Z,21.52
2019-01-05T04:51:50.293Z,21.37
2019-01-05T04:53:34.136Z,21.33
2019-01-05T04:54:59.748Z,20.52
2019-01-05T04:56:29.004Z,21.37
2019-01-05T04:57:45.105Z,20.43
2019-01-05T04:59:18.454Z,20.90
2019-01-05T05:01:07.327Z,19.37
2019-01-05T05:02:47.357Z,19.45
2019-01-05T05:04:26.659Z,20.10
2019-01-05T05:06:13.253Z,18.32
2019-01-05T05:07:38.985Z,20.57
2019-01-05T05:09:07.591Z,20.82
2019-01-05T05:10:41.574Z,19.60
2019-01-05T05:12:04.560Z,20.80
2019-01-05T05:13:52.569Z,21.52
2019-01-05T05:15:25.142Z,20.43
2019-01-05T05:17:05.791Z,19.95
2019-01-05T05:18:46.735Z,21.05
2019-01-05T05:20:25.268Z,21.27
2019-01-05T05:22:03.722Z,20.20
2019-01-05T05:23:42.848Z,22.98
2019-01-05T05:25:02.155Z,20.15
2019-01-05T05:26:24.812Z,19.15
2019-01-05T05:27:38.573Z,19.10
2019-01-05T05:29:11.648Z,19.85
2019-01-05T05:30:40.520Z,19.27
2019-01-05T05:32:06.387Z,21.12
2019-01-05T05:34:00.535Z,20.50
2019-01-05T05:35:20.326Z,21.05
2019-01-05T05:36:56.514Z,20.10
2019-01-05T05:38:12.926Z,22.48
2019-01-05T05:39:39.767Z,23.20
2019-01-05T05:41:25.286Z,22.75
2019-01-05T05:42:52.753Z,22.15
2019-01-05T05:44:26.054Z,22.13
2019-01-05T05:45:34.175Z,21.87
2019-01-05T05:47:16.227Z,23.98
2019-01-05T05:48:46.762Z,26.12
2019-01-05T05:50:12.080Z,23.42
2019-01-05T05:51:51.261Z,24.27
2019-01-05T05:53:07.634Z,25.00
2019-01-05T05:54:35.587Z,26.77
2019-01-05T05:56:07.581Z,23.85
2019-01-05T05:57:37.461Z,24.63
2019-01-05T05:59:04.153Z,24.82
2019-01-05T06:00:34.438Z,24.40
2019-01-05T06:02:03.193Z,26.55
2019-01-05T06:03:22.929Z,24.07
2019-01-05T06:04:45.603Z,25.45
2019-01-05T06:06:25.920Z,27.15
2019-01-05T06:07:39.638Z,26.50
2019-01-05T06:09:02.439Z,26.25
2019-01-05T06:10:41.683Z,24.07
2019-01-05T06:12:21.036Z,26.40
2019-01-05T06:13:54.321Z,25.15
2019-01-05T06:15:39.568Z,24.18
2019-01-05T06:17:20.246Z,25.20
2019-01-05T06:18:53.377Z,26.73
2019-01-05T06:20:04.154Z,25.80
2019-01-05T06:21:40.331Z,29.57
2019-01-05T06:23:10.519Z,25.65
2019-01-05T06:24:37.365Z,27.30
2019-01-05T06:26:07.619Z,27.13
2019-01-05T06:27:57.196Z,26.62
2019-01-05T06:29:24.125Z,27.80
2019-01-05T06:30:43.641Z,25.88
2019-01-05T06:32:40.457Z,26.05
2019-01-05T06:34:09.298Z,26.95
2019-01-05T06:44:18.938Z,26.00
2019-01-05T06:45:29.562Z,27.85
2019-01-05T06:47:07.564Z,28.98
2019-01-05T06:48:18.507Z,26.93
2019-01-05T06:49:38.313Z,29.72
2019-01-05T06:51:13.114Z,28.50
2019-01-05T06:52:37.502Z,27.13
2019-01-05T06:54:14.027Z,24.85
2019-01-05T06:55:57.946Z,26.57
2019-01-05T06:57:46.152Z,25.60
2019-01-05T06:59:11.794Z,27.27
2019-01-05T07:01:08.734Z,26.70
2019-01-05T07:02:57.081Z,26.62
2019-01-05T07:04:30.311Z,27.85
2019-01-05T07:06:08.957Z,25.08
2019-01-05T07:07:40.749Z,25.48
2019-01-05T07:09:13.863Z,22.95
2019-01-05T07:10:56.223Z,22.95
2019-01-05T07:12:36.893Z,21.70
2019-01-05T07:14:11.823Z,23.10
2019-01-05T07:15:40.922Z,21.48
2019-01-05T07:17:15.733Z,23.12
2019-01-05T07:19:00.779Z,22.70
2019-01-05T07:20:41.385Z,22.40
2019-01-05T07:22:00.898Z,22.82
2019-01-05T07:23:20.443Z,22.58
2019-01-05T07:24:59.726Z,21.93
2019-01-05T07:26:24.168Z,23.35
2019-01-05T07:28:09.616Z,22.35
2019-01-05T07:30:08.413Z,22.17
2019-01-05T07:31:32.403Z,22.20
2019-01-05T07:33:08.279Z,23.92
2019-01-05T07:35:00.765Z,22.45
2019-01-05T07:36:57.627Z,22.58
2019-01-05T07:38:17.163Z,21.52
2019-01-05T07:40:02.613Z,19.95
2019-01-05T07:41:53.924Z,20.27
2019-01-05T07:43:24.176Z,19.05
2019-01-05T07:45:07.359Z,18.20
2019-01-05T07:46:34.499Z,20.40
2019-01-05T07:48:27.048Z,19.48
2019-01-05T07:50:19.701Z,19.37
2019-01-05T07:52:15.160Z,18.48
2019-01-05T07:54:08.086Z,18.00
2019-01-05T07:55:33.748Z,16.70
2019-01-05T07:57:02.311Z,17.60
2019-01-05T07:58:49.238Z,21.12
2019-01-05T08:00:34.726Z,18.15
2019-01-05T08:02:15.359Z,19.30
2019-01-05T08:04:03.081Z,17.02
2019-01-05T08:05:42.350Z,17.60
2019-01-05T08:07:16.442Z,18.85
2019-01-05T08:08:57.118Z,19.42
2019-01-05T08:10:19.801Z,17.75
2019-01-05T08:11:51.564Z,17.40
2019-01-05T08:13:25.025Z,18.12
2019-01-05T08:14:44.575Z,18.17
2019-01-05T08:16:32.812Z,19.45
2019-01-05T08:17:57.162Z,17.00
2019-01-05T08:19:37.724Z,16.10
2019-01-05T08:21:15.620Z,18.27
2019-01-05T08:22:50.165Z,16.57
2019-01-05T08:24:01.128Z,16.37
2019-01-05T08:25:28.087Z,17.02
2019-01-05T08:26:47.569Z,15.70
2019-01-05T08:28:22.028Z,16.93
2019-01-05T08:29:53.958Z,19.20
2019-01-05T08:31:32.830Z,15.98
2019-01-05T08:32:46.354Z,16.57
2019-01-05T08:34:16.261Z,18.00
2019-01-05T08:35:43.101Z,18.73
2019-01-05T08:37:34.125Z,18.42
2019-01-05T08:39:12.183Z,16.37
2019-01-05T08:40:42.676Z,18.30
2019-01-05T08:42:25.178Z,16.65
2019-01-05T08:43:53.932Z,14.98
2019-01-05T08:45:29.003Z,14.78
2019-01-05T08:47:15.397Z,16.20
2019-01-05T08:48:44.471Z,14.70
2019-01-05T08:50:22.358Z,14.87
2019-01-05T08:51:57.221Z,15.95
2019-01-05T08:53:35.653Z,13.38
2019-01-05T08:55:17.870Z,13.20
2019-01-05T08:56:37.209Z,12.23
2019-01-05T08:58:18.054Z,14.60
2019-01-05T09:00:00.332Z,13.35
2019-01-05T09:01:20.343Z,13.43
2019-01-05T09:03:02.564Z,14.23
2019-01-05T09:04:38.797Z,14.78
2019-01-05T09:05:55.673Z,13.53
2019-01-05T09:07:34.973Z,14.13
2019-01-05T09:09:07.798Z,13.22
2019-01-05T09:10:50.492Z,13.70
2019-01-05T09:12:36.975Z,14.43
2019-01-05T09:14:08.562Z,13.78
2019-01-05T09:15:40.072Z,14.07
2019-01-05T09:17:08.818Z,13.85
2019-01-05T09:18:31.664Z,12.23
2019-01-05T09:20:04.281Z,14.10
2019-01-05T09:21:26.918Z,13.80
2019-01-05T09:23:19.511Z,13.53
2019-01-05T09:24:51.539Z,13.98
2019-01-05T09:26:21.665Z,13.32
2019-01-05T09:27:58.319Z,13.95
2019-01-05T09:29:28.256Z,14.20
2019-01-05T09:30:57.197Z,13.68
2019-01-05T09:32:23.890Z,13.45
2019-01-05T09:34:12.153Z,13.43
2019-01-05T09:35:59.046Z,14.40
2019-01-05T09:37:33.659Z,14.83
2019-01-05T09:39:09.838Z,12.60
2019-01-05T09:40:35.885Z,14.15
2019-01-05T09:42:05.936Z,12.80
2019-01-05T09:43:31.639Z,13.28
2019-01-05T09:45:07.955Z,13.70
2019-01-05T09:46:51.667Z,13.13
2019-01-05T09:48:21.934Z,14.28
2019-01-05T09:49:55.238Z,14.10
2019-01-05T09:51:35.482Z,15.38
2019-01-05T09:53:08.850Z,15.72
2019-01-05T09:55:08.079Z,13.48
2019-01-05T09:56:53.432Z,15.55
2019-01-05T09:58:17.713Z,14.63
2019-01-05T09:59:43.690Z,14.60
2019-01-05T10:01:13.409Z,12.95
2019-01-05T10:03:08.647Z,14.87
2019-01-05T10:04:37.607Z,13.75
2019-01-05T10:05:45.757Z,13.93
2019-01-05T10:06:59.454Z,14.83
2019-01-05T10:08:22.346Z,14.50
2019-01-05T10:10:04.592Z,11.30
2019-01-05T10:11:36.229Z,12.28
2019-01-05T10:13:22.953Z,14.55
2019-01-05T10:14:54.324Z,14.38
2019-01-05T10:16:21.221Z,12.23
2019-01-05T10:17:37.541Z,11.43
2019-01-05T10:19:07.690Z,12.15
2019-01-05T10:20:43.976Z,11.88
2019-01-05T10:22:10.086Z,11.18
2019-01-05T10:23:37.075Z,9.45
2019-01-05T10:25:02.611Z,9.78
2019-01-05T10:26:41.089Z,9.43
2019-01-05T10:28:19.041Z,9.50
2019-01-05T10:30:17.448Z,9.68
2019-01-05T10:31:59.782Z,9.35
2019-01-05T10:33:25.233Z,9.80
2019-01-05T10:34:54.230Z,10.13
2019-01-05T10:36:33.449Z,9.03
2019-01-05T10:38:08.873Z,8.90
2019-01-05T10:39:40.726Z,8.55
2019-01-05T10:41:12.859Z,7.80
2019-01-05T10:42:46.463Z,8.60
2019-01-05T10:44:19.366Z,8.93
2019-01-05T10:45:43.354Z,7.55
2019-01-05T10:46:57.317Z,8.25
2019-01-05T10:48:27.862Z,7.97
2019-01-05T10:50:19.652Z,7.15
2019-01-05T10:51:57.202Z,7.25
2019-01-05T10:53:10.954Z,6.90
2019-01-05T10:54:54.334Z,7.15
2019-01-05T10:56:24.424Z,7.67
2019-01-05T10:57:50.067Z,7.30
2019-01-05T10:59:35.089Z,6.47
2019-01-05T11:00:57.626Z,7.60
2019-01-05T11:02:47.343Z,6.15
2019-01-05T11:04:00.603Z,6.15
2019-01-05T11:05:23.560Z,6.12
2019-01-05T11:06:48.958Z,6.55
2019-01-05T11:08:26.780Z,6.55
2019-01-05T11:09:46.673Z,6.85
2019-01-05T11:11:30.426Z,6.03
2019-01-05T11:13:02.199Z,6.45
2019-01-05T11:14:59.419Z,6.45
2019-01-05T11:16:40.270Z,6.00
2019-01-05T11:18:24.120Z,5.30
2019-01-05T11:19:54.733Z,5.10
2019-01-05T11:21:41.563Z,5.45
2019-01-05T11:23:07.354Z,5.83
2019-01-05T11:24:55.799Z,6.28
2019-01-05T11:26:45.301Z,5.55
2019-01-05T11:28:31.243Z,5.92
2019-01-05T11:30:12.834Z,5.28
2019-01-05T11:31:40.143Z,5.60
2019-01-05T11:33:02.681Z,5.80
2019-01-05T11:34:22.498Z,6.53
2019-01-05T11:35:42.265Z,6.45
2019-01-05T11:37:16.969Z,6.55
2019-01-05T11:38:56.273Z,5.03
2019-01-05T11:40:44.875Z,5.15
2019-01-05T11:41:55.428Z,4.30
2019-01-05T11:43:28.896Z,5.20
2019-01-05T11:45:01.958Z,4.80
2019-01-05T11:46:33.600Z,4.40
2019-01-05T11:48:10.868Z,4.40
2019-01-05T11:49:57.474Z,4.85
2019-01-05T11:51:19.711Z,4.25
2019-01-05T11:52:48.407Z,4.87
2019-01-05T11:54:39.255Z,4.55
2019-01-05T11:55:58.869Z,4.45
2019-01-05T11:57:52.109Z,3.77
2019-01-05T11:59:26.827Z,4.00
2019-01-05T12:00:54.232Z,3.80
2019-01-05T12:02:34.958Z,3.80
2019-01-05T12:03:48.939Z,3.87
2019-01-05T12:05:18.759Z,3.95
2019-01-05T12:06:38.394Z,3.72
2019-01-05T12:08:10.041Z,3.65
2019-01-05T12:09:49.310Z,3.90
2019-01-05T12:11:17.474Z,3.17
2019-01-05T12:12:44.482Z,3.80
2019-01-05T12:14:19.070Z,3.70
2019-01-05T12:15:48.980Z,3.58
2019-01-05T12:17:16.483Z,3.75
2019-01-05T12:18:39.326Z,3.25
2019-01-05T12:20:08.363Z,3.60
2019-01-05T12:21:51.421Z,3.37
2019-01-05T12:23:15.855Z,3.17
2019-01-05T12:24:56.362Z,3.42
2019-01-05T12:26:37.375Z,3.50
2019-01-05T12:27:54.000Z,4.17
2019-01-05T12:29:50.987Z,3.45
2019-01-05T12:31:07.400Z,3.22
2019-01-05T12:32:47.847Z,3.10
2019-01-05T12:34:22.595Z,3.17
2019-01-05T12:35:55.910Z,3.45
2019-01-05T12:37:24.533Z,4.30
2019-01-05T12:39:00.718Z,3.45
2019-01-05T12:40:47.660Z,3.52
2019-01-05T12:41:58.351Z,4.30
2019-01-05T12:43:31.535Z,3.65
2019-01-05T12:44:42.230Z,3.22
2019-01-05T12:46:18.242Z,4.30
2019-01-05T12:47:45.372Z,3.50
2019-01-05T12:49:27.171Z,3.75
2019-01-05T12:51:06.547Z,3.60
2019-01-05T12:52:50.151Z,3.50
2019-01-05T12:54:15.938Z,3.30
2019-01-05T12:55:38.559Z,3.47
2019-01-05T12:57:08.745Z,4.10
2019-01-05T12:58:42.174Z,3.98
2019-01-05T13:00:27.504Z,3.30
2019-01-05T13:02:02.304Z,2.92
2019-01-05T13:03:33.905Z,3.55
2019-01-05T13:04:56.494Z,3.95
2019-01-05T13:06:31.308Z,3.30
2019-01-05T13:07:44.995Z,3.40
2019-01-05T13:09:28.755Z,3.30
2019-01-05T13:11:11.257Z,3.52
2019-01-05T13:12:41.319Z,3.30
2019-01-05T13:14:12.911Z,3.50
2019-01-05T13:15:47.608Z,3.50
2019-01-05T13:17:30.702Z,2.80
2019-01-05T13:18:56.487Z,3.12
2019-01-05T13:20:37.290Z,3.60
2019-01-05T13:22:12.143Z,2.80
2019-01-05T13:23:23.179Z,2.40
2019-01-05T13:24:43.001Z,3.30
2019-01-05T13:26:08.570Z,3.02
2019-01-05T13:27:25.061Z,2.80
2019-01-05T13:29:00.918Z,2.77
2019-01-05T13:30:35.640Z,2.60
2019-01-05T13:32:26.878Z,3.10
2019-01-05T13:33:43.703Z,2.85
2019-01-05T13:34:57.304Z,2.58
2019-01-05T13:36:11.269Z,2.67
2019-01-05T13:37:47.014Z,2.62
2019-01-05T13:39:38.317Z,2.55
2019-01-05T13:41:29.566Z,2.42
2019-01-05T13:43:02.511Z,2.60
2019-01-05T13:44:16.342Z,2.27
2019-01-05T13:45:47.701Z,2.50
2019-01-05T13:47:30.859Z,2.40
2019-01-05T13:49:10.574Z,2.47
2019-01-05T13:50:36.298Z,2.80
2019-01-05T13:52:02.190Z,2.50
2019-01-05T13:53:19.425Z,2.47
2019-01-05T13:54:40.346Z,2.40
2019-01-05T13:56:04.778Z,2.27
2019-01-05T13:57:24.889Z,2.87
2019-01-05T13:58:35.910Z,2.98
2019-01-05T13:59:43.503Z,3.20
2019-01-05T14:00:48.572Z,4.37
2019-01-05T14:01:53.636Z,4.22
2019-01-05T14:03:13.686Z,3.95
2019-01-05T14:04:18.756Z,2.80
2019-01-05T14:05:29.407Z,3.60
2019-01-05T14:06:36.965Z,2.70
2019-01-05T14:07:58.102Z,2.70
2019-01-05T14:09:08.866Z,2.47
2019-01-05T14:10:16.691Z,2.70
2019-01-05T14:11:24.519Z,2.95
2019-01-05T14:12:47.483Z,3.67
2019-01-05T14:14:08.875Z,2.62
2019-01-05T14:15:32.009Z,2.75
2019-01-05T14:16:45.777Z,3.00
2019-01-05T14:18:08.453Z,2.70
2019-01-05T14:19:31.550Z,3.50
2019-01-05T14:20:36.624Z,3.20
2019-01-05T14:21:57.508Z,3.20
2019-01-05T14:23:05.461Z,5.03
2019-01-05T14:24:10.530Z,2.30
2019-01-05T14:25:24.668Z,3.10
2019-01-05T14:26:35.298Z,2.83
2019-01-05T14:27:56.309Z,2.92
2019-01-05T14:29:06.786Z,2.95
2019-01-05T14:30:14.729Z,4.08
2019-01-05T14:31:35.496Z,4.65
2019-01-05T14:32:58.130Z,4.33
2019-01-05T14:34:08.619Z,2.75
2019-01-05T14:35:22.601Z,3.10
2019-01-05T14:36:42.266Z,2.67
2019-01-05T14:37:47.331Z,2.52
2019-01-05T14:38:52.457Z,2.62
2019-01-05T14:40:03.115Z,2.90
2019-01-05T14:41:11.223Z,2.98
2019-01-05T14:42:19.100Z,3.02
2019-01-05T14:43:27.143Z,3.30
2019-01-05T14:44:32.205Z,2.80
2019-01-05T14:45:55.358Z,3.10
2019-01-05T14:47:15.679Z,2.90
2019-01-05T14:48:20.746Z,2.72
2019-01-05T14:49:41.938Z,3.37
2019-01-05T14:50:55.557Z,2.37
2019-01-05T14:52:03.055Z,3.10
2019-01-05T14:53:08.111Z,2.80
2019-01-05T14:54:29.163Z,2.87
2019-01-05T14:55:42.666Z,2.95
2019-01-05T14:56:59.507Z,2.37
2019-01-05T14:58:20.712Z,2.62
2019-01-05T14:59:41.911Z,2.35
2019-01-05T15:00:58.438Z,2.72
2019-01-05T15:02:15.264Z,2.90
2019-01-05T15:03:36.258Z,2.80
2019-01-05T15:04:43.985Z,2.52
2019-01-05T15:06:05.267Z,2.02
2019-01-05T15:07:13.049Z,1.90
2019-01-05T15:08:36.017Z,2.40
2019-01-05T15:09:56.717Z,3.10
2019-01-05T15:11:10.803Z,3.22
2019-01-05T15:12:21.797Z,3.33
2019-01-05T15:13:32.737Z,3.33
2019-01-05T15:14:43.629Z,2.55
2019-01-05T15:15:57.833Z,3.15
2019-01-05T15:17:18.932Z,2.80
2019-01-05T15:18:36.162Z,3.05
2019-01-05T15:19:59.197Z,2.80
2019-01-05T15:21:10.348Z,2.70
2019-01-05T15:22:21.233Z,2.58
2019-01-05T15:23:26.312Z,3.00
2019-01-05T15:24:37.192Z,2.70
2019-01-05T15:25:48.203Z,3.75
2019-01-05T15:27:02.155Z,4.50
2019-01-05T15:28:21.971Z,4.50
2019-01-05T15:29:35.793Z,3.20
2019-01-05T15:30:56.637Z,2.83
2019-01-05T15:32:04.751Z,2.87
2019-01-05T15:33:15.453Z,2.67
2019-01-05T15:34:36.590Z,2.37
2019-01-05T15:35:44.212Z,2.67
2019-01-05T15:37:05.068Z,2.47
2019-01-05T15:38:18.955Z,2.92
2019-01-05T15:39:24.113Z,3.25
2019-01-05T15:40:45.313Z,2.75
2019-01-05T15:42:06.602Z,3.17
2019-01-05T15:43:27.842Z,2.40
2019-01-05T15:44:32.916Z,2.75
2019-01-05T15:45:43.700Z,3.15
2019-01-05T15:46:51.295Z,2.40
2019-01-05T15:48:10.939Z,3.00
2019-01-05T15:49:21.830Z,2.72
2019-01-05T15:50:44.837Z,3.10
2019-01-05T15:51:55.720Z,2.60
2019-01-05T15:53:00.805Z,2.72
2019-01-05T15:54:20.843Z,2.83
2019-01-05T15:55:31.669Z,2.70
2019-01-05T15:56:52.602Z,3.27
2019-01-05T15:58:00.238Z,2.67
2019-01-05T15:59:05.369Z,2.67
2019-01-05T16:00:27.080Z,3.02
2019-01-05T16:01:34.622Z,2.70
2019-01-05T16:02:57.999Z,2.50
2019-01-05T16:04:05.879Z,2.83
2019-01-05T16:05:27.118Z,2.87
2019-01-05T16:06:48.199Z,2.60
2019-01-05T16:08:08.026Z,3.30
2019-01-05T16:09:29.423Z,2.70
2019-01-05T16:10:50.547Z,2.75
2019-01-05T16:11:55.614Z,3.00
2019-01-05T16:13:18.701Z,2.65
2019-01-05T16:14:29.766Z,2.85
2019-01-05T16:15:37.750Z,2.85
2019-01-05T16:16:48.560Z,2.65
2019-01-05T16:18:05.624Z,2.85
2019-01-05T16:19:25.422Z,3.33
2019-01-05T16:20:30.457Z,2.62
2019-01-05T16:21:47.189Z,2.85
2019-01-05T16:22:52.275Z,3.35
2019-01-05T16:24:13.212Z,3.27
2019-01-05T16:25:21.099Z,3.35
2019-01-05T16:26:42.240Z,2.80
2019-01-05T16:28:05.086Z,2.60
2019-01-05T16:29:13.050Z,2.90
2019-01-05T16:30:34.469Z,3.20
2019-01-05T16:31:48.103Z,3.33
2019-01-05T16:32:56.050Z,2.98
2019-01-05T16:34:16.781Z,2.95
2019-01-05T16:35:39.879Z,2.50
2019-01-05T16:36:50.828Z,2.30
2019-01-05T16:38:13.527Z,2.65
2019-01-05T16:39:18.596Z,3.08
2019-01-05T16:40:26.521Z,3.10
2019-01-05T16:41:40.475Z,3.15
2019-01-05T16:42:57.628Z,2.83
2019-01-05T16:44:05.266Z,2.70
2019-01-05T16:45:19.085Z,3.20
2019-01-05T16:46:24.185Z,3.12
2019-01-05T16:47:32.150Z,2.85
2019-01-05T16:48:45.946Z,2.45
2019-01-05T16:49:53.700Z,2.80
2019-01-05T16:50:58.978Z,2.55
2019-01-05T16:52:09.562Z,2.98
2019-01-05T16:53:30.304Z,2.40
2019-01-05T16:54:35.368Z,2.50
2019-01-05T16:55:49.114Z,3.10
2019-01-05T16:57:10.271Z,2.80
2019-01-05T16:58:31.429Z,2.75
2019-01-05T16:59:51.639Z,2.90
2019-01-05T17:01:12.813Z,2.80
2019-01-05T17:02:20.685Z,2.60
2019-01-05T17:03:31.656Z,2.90
2019-01-05T17:04:52.555Z,2.70
2019-01-05T17:06:06.790Z,2.37
2019-01-05T17:07:20.931Z,2.90
2019-01-05T17:08:28.846Z,2.92
2019-01-05T17:09:36.873Z,2.27
2019-01-05T17:10:57.920Z,2.70
2019-01-05T17:12:08.745Z,3.22
2019-01-05T17:13:13.992Z,2.58
2019-01-05T17:14:30.667Z,2.30
2019-01-05T17:15:38.580Z,3.02
2019-01-05T17:16:46.551Z,3.08
2019-01-05T17:18:00.407Z,2.75
2019-01-05T17:19:05.471Z,2.77
2019-01-05T17:20:13.384Z,3.27
2019-01-05T17:21:21.348Z,3.17
2019-01-05T17:22:34.930Z,3.17
2019-01-05T17:23:48.824Z,2.30
2019-01-05T17:24:53.944Z,2.90
2019-01-05T17:26:14.979Z,3.17
2019-01-05T17:27:36.320Z,2.33
2019-01-05T17:28:49.814Z,2.87
2019-01-05T17:29:54.954Z,4.05
2019-01-05T17:31:00.055Z,3.40
2019-01-05T17:32:05.132Z,3.65
2019-01-05T17:33:26.339Z,3.10
2019-01-05T17:34:47.645Z,2.77
2019-01-05T17:36:01.614Z,2.72
2019-01-05T17:37:22.746Z,2.30
2019-01-05T17:38:43.932Z,2.42
2019-01-05T17:39:49.022Z,2.70
2019-01-05T17:40:59.928Z,3.17
2019-01-05T17:42:07.740Z,3.15
2019-01-05T17:43:27.655Z,3.10
2019-01-05T17:44:47.681Z,2.47
2019-01-05T17:45:55.414Z,2.80
2019-01-05T17:47:09.211Z,2.83
2019-01-05T17:48:19.976Z,2.90
2019-01-05T17:49:25.059Z,2.77
2019-01-05T17:50:41.807Z,3.25
2019-01-05T17:51:52.479Z,2.25
2019-01-05T17:53:03.397Z,3.12
2019-01-05T17:54:20.119Z,3.10
2019-01-05T17:55:30.823Z,3.12
2019-01-05T17:56:38.705Z,3.50
2019-01-05T17:57:52.750Z,2.70
2019-01-05T17:59:13.958Z,3.05
2019-01-05T18:00:35.049Z,2.72
2019-01-05T18:01:40.135Z,3.15
2019-01-05T18:02:48.054Z,2.98
2019-01-05T18:04:11.137Z,2.50
2019-01-05T18:05:22.064Z,2.55
2019-01-05T18:06:43.208Z,3.10
2019-01-05T18:08:04.345Z,2.75
2019-01-05T18:09:12.114Z,3.12
2019-01-05T18:10:22.631Z,3.15
2019-01-05T18:11:45.694Z,2.72
2019-01-05T18:12:56.461Z,2.80
2019-01-05T18:14:17.628Z,2.85
2019-01-05T18:15:38.819Z,2.80
2019-01-05T18:16:46.292Z,3.27
2019-01-05T18:17:57.022Z,3.10
2019-01-05T18:19:10.998Z,2.90
2019-01-05T18:20:33.924Z,2.75
2019-01-05T18:21:37.352Z,3.15
2019-01-05T18:23:00.281Z,2.83
2019-01-05T18:24:20.371Z,3.02
2019-01-05T18:25:40.226Z,3.10
2019-01-05T18:27:03.285Z,2.90
2019-01-05T18:28:24.417Z,2.72
2019-01-05T18:29:35.481Z,2.85
2019-01-05T18:30:49.017Z,3.70
2019-01-05T18:32:06.104Z,3.30
2019-01-05T18:33:14.033Z,3.62
2019-01-05T18:34:24.605Z,4.05
2019-01-05T18:35:32.488Z,3.72
2019-01-05T18:36:43.543Z,2.95